Cagliari / Elmas Airport LIEE

Flugplatz Daten

Name: Cagliari / Elmas Airport

Ident: LIEE

Lat: 39,25149918

Long: 9,054280281

Platzhöhe: 13 ft

IataCode: CAG

City: Cagliari

Homepage: http://www.cagliariairport.it/en/

Metar

2021/08/05 13:20
LIEE 051320Z 22006KT 140V300 CAVOK 31/18 Q1013

Taf

2021/08/05 12:00
TAF LIEE 051100Z 0512/0612 33016KT CAVOK
BECMG 0520/0522 VRB05KT
BECMG 0606/0608 33012KT
Gewünschte Webcam nicht vorhanden? Dann fügen Sie eine hinzu. Sie wird dann so schnell wie möglich freigeschaltet
Url: Title: